Time;durP1;ratioP1;P1;durP2;ratioP2;P2;SDS_P1;SDS_P2;PMS_P1;PMS_P2;Temp;Humidity;BMP_temperature;BMP_pressure;BME280_temperature;BME280_humidity;BME280_pressure;Samples;Min_cycle;Max_cycle;Signal;HPM_P1;HPM_P2
2022/08/23 00:01:39;;;;;;;6.78;2.70;;;21.10;97.80;;;;;;5028349;28;20033;-77
2022/08/23 00:04:09;;;;;;;5.28;2.10;;;21.00;97.70;;;;;;5046681;28;20032;-77
2022/08/23 00:06:34;;;;;;;4.35;2.10;;;21.00;97.90;;;;;;5047405;28;20119;-77
2022/08/23 00:09:00;;;;;;;4.53;2.20;;;21.00;97.70;;;;;;5015690;28;20116;-77
2022/08/23 00:11:29;;;;;;;6.03;2.17;;;21.00;97.80;;;;;;5027260;28;20021;-77
2022/08/23 00:13:56;;;;;;;8.07;2.30;;;21.00;97.80;;;;;;5054302;28;20047;-77
2022/08/23 00:16:21;;;;;;;6.50;1.95;;;21.00;97.80;;;;;;5031921;28;20033;-77
2022/08/23 00:18:48;;;;;;;8.45;2.08;;;21.00;97.80;;;;;;5048162;28;20405;-77
2022/08/23 00:21:13;;;;;;;4.57;1.80;;;21.00;97.90;;;;;;5029940;28;20037;-77
2022/08/23 00:23:39;;;;;;;4.30;2.22;;;21.00;97.80;;;;;;5048713;28;20052;-78
2022/08/23 00:26:05;;;;;;;6.07;2.13;;;21.00;97.70;;;;;;5030172;28;20029;-77
2022/08/23 00:28:31;;;;;;;6.45;2.00;;;21.00;97.60;;;;;;5031942;28;20029;-77
2022/08/23 00:30:57;;;;;;;5.07;1.90;;;21.00;97.60;;;;;;5026705;28;20039;-76
2022/08/23 00:33:24;;;;;;;4.80;2.25;;;20.90;97.50;;;;;;5030278;28;20037;-77
2022/08/23 00:35:50;;;;;;;3.92;2.30;;;20.90;97.60;;;;;;5048947;28;20037;-77
2022/08/23 00:38:16;;;;;;;8.43;2.70;;;20.90;97.60;;;;;;5012265;28;20029;-77
2022/08/23 00:40:47;;;;;;;7.05;2.60;;;20.90;97.60;;;;;;5012695;28;20029;-77
2022/08/23 00:48:56;;;;;;;5.65;2.50;;;20.90;97.90;;;;;;5027309;28;20021;-77
2022/08/23 00:51:31;;;;;;;4.25;2.35;;;20.80;97.90;;;;;;5013956;28;20036;-77
2022/08/23 00:54:00;;;;;;;7.47;2.40;;;20.80;97.90;;;;;;5028096;28;20108;-77
2022/08/23 00:56:29;;;;;;;3.35;2.22;;;20.80;97.70;;;;;;5029446;28;20546;-77
2022/08/23 00:58:56;;;;;;;5.93;2.45;;;20.80;98.00;;;;;;5032450;28;20536;-77
2022/08/23 01:01:22;;;;;;;7.57;2.63;;;20.80;98.20;;;;;;5035138;28;20037;-78
2022/08/23 01:03:52;;;;;;;5.50;2.10;;;20.80;98.00;;;;;;5049573;28;20419;-77
2022/08/23 01:06:25;;;;;;;5.22;2.20;;;20.80;98.10;;;;;;5030942;28;20024;-77
2022/08/23 01:08:56;;;;;;;4.72;2.22;;;20.80;98.10;;;;;;5049788;28;20369;-78
2022/08/23 01:11:34;;;;;;;7.43;2.38;;;20.80;98.10;;;;;;5033166;28;20021;-78
2022/08/23 01:14:22;;;;;;;4.72;2.13;;;20.80;98.10;;;;;;5059879;28;20124;-78
2022/08/23 01:17:05;;;;;;;5.30;2.33;;;20.70;98.20;;;;;;5062060;28;20025;-77
2022/08/23 01:19:49;;;;;;;5.75;2.53;;;20.80;98.30;;;;;;5062748;28;20033;-78
2022/08/23 01:22:37;;;;;;;5.70;2.70;;;20.70;98.30;;;;;;5048943;28;20060;-78
2022/08/23 01:25:07;;;;;;;4.22;2.28;;;20.70;98.40;;;;;;5040220;28;20036;-78
2022/08/23 01:27:34;;;;;;;6.38;2.38;;;20.70;98.60;;;;;;5054995;28;20024;-78
2022/08/23 01:30:00;;;;;;;7.35;2.58;;;20.70;98.70;;;;;;5053370;28;20029;-78
2022/08/23 01:32:26;;;;;;;7.55;2.80;;;20.70;98.90;;;;;;5019088;28;20029;-78
2022/08/23 01:34:51;;;;;;;8.10;2.70;;;20.60;98.70;;;;;;5017131;28;20111;-78
2022/08/23 01:37:19;;;;;;;5.55;2.25;;;20.60;98.80;;;;;;5073136;28;20035;-77
2022/08/23 01:39:44;;;;;;;4.55;2.50;;;20.60;98.80;;;;;;5038053;28;20021;-78
2022/08/23 01:42:11;;;;;;;3.42;2.33;;;20.60;98.90;;;;;;5018730;28;20047;-78
2022/08/23 01:44:37;;;;;;;5.60;2.72;;;20.60;99.00;;;;;;5052070;28;20037;-78
2022/08/23 01:47:04;;;;;;;4.47;2.30;;;20.70;98.90;;;;;;5020236;28;20092;-78
2022/08/23 01:49:32;;;;;;;5.90;2.58;;;20.60;98.90;;;;;;5050407;28;20028;-78
2022/08/23 01:51:57;;;;;;;4.82;2.35;;;20.60;98.80;;;;;;5034148;28;20045;-78
2022/08/23 01:54:23;;;;;;;6.22;2.95;;;20.60;98.90;;;;;;5035753;28;20086;-78
2022/08/23 01:56:49;;;;;;;4.50;2.40;;;20.60;98.90;;;;;;5035671;28;20040;-78
2022/08/23 01:59:14;;;;;;;4.15;2.20;;;20.50;98.90;;;;;;5055402;28;20582;-78
2022/08/23 02:01:40;;;;;;;5.43;2.10;;;20.50;98.90;;;;;;5053226;28;20029;-78
2022/08/23 02:04:06;;;;;;;4.13;2.20;;;20.60;99.00;;;;;;5031843;28;20047;-78
2022/08/23 02:06:32;;;;;;;4.85;2.38;;;20.60;98.90;;;;;;5035845;28;20037;-78
2022/08/23 02:09:01;;;;;;;5.57;2.83;;;20.60;98.90;;;;;;5033668;28;20056;-78
2022/08/23 02:11:30;;;;;;;4.28;2.38;;;20.50;99.00;;;;;;5051430;28;20025;-78
2022/08/23 02:13:58;;;;;;;5.47;2.10;;;20.60;98.90;;;;;;5052703;28;20140;-78
2022/08/23 02:16:30;;;;;;;4.43;2.28;;;20.50;98.80;;;;;;5051749;28;20032;-78
2022/08/23 02:18:57;;;;;;;4.68;2.20;;;20.50;98.60;;;;;;5052596;28;20021;-78
2022/08/23 02:21:25;;;;;;;4.15;2.65;;;20.50;98.80;;;;;;5018963;28;20052;-78
2022/08/23 02:23:50;;;;;;;4.43;2.65;;;20.50;98.80;;;;;;5036623;28;20041;-78
2022/08/23 02:26:17;;;;;;;2.80;2.25;;;20.50;98.80;;;;;;5068832;28;20062;-78
2022/08/23 02:28:43;;;;;;;3.47;2.30;;;20.50;99.00;;;;;;5053339;28;20025;-78
2022/08/23 02:31:11;;;;;;;3.45;2.38;;;20.50;99.10;;;;;;5040517;28;20385;-77
2022/08/23 02:33:36;;;;;;;5.75;2.63;;;20.50;99.00;;;;;;5058591;28;20526;-77
2022/08/23 02:36:02;;;;;;;4.53;2.55;;;20.50;99.00;;;;;;5035431;28;20112;-78
2022/08/23 02:38:28;;;;;;;4.45;2.50;;;20.50;99.00;;;;;;5035667;28;20508;-78
2022/08/23 02:40:55;;;;;;;7.25;2.60;;;20.50;99.20;;;;;;5035763;28;20060;-78
2022/08/23 02:43:21;;;;;;;4.18;2.45;;;20.40;99.00;;;;;;5038094;28;20228;-78
2022/08/23 02:45:46;;;;;;;3.88;2.33;;;20.50;99.10;;;;;;5034584;28;20116;-78
2022/08/23 02:48:12;;;;;;;5.13;2.75;;;20.40;99.10;;;;;;5050771;28;20104;-78
2022/08/23 02:50:38;;;;;;;5.53;3.05;;;20.50;99.10;;;;;;5035351;28;20017;-78
2022/08/23 02:53:04;;;;;;;3.10;2.20;;;20.50;99.00;;;;;;5034350;28;20063;-78
2022/08/23 02:55:29;;;;;;;6.60;2.75;;;20.40;99.10;;;;;;5016687;28;20025;-78
2022/08/23 02:57:55;;;;;;;6.72;2.25;;;20.40;99.00;;;;;;5053535;28;20607;-78
2022/08/23 03:00:21;;;;;;;5.00;2.60;;;20.40;99.00;;;;;;5032961;28;20104;-77
2022/08/23 03:02:47;;;;;;;11.05;2.78;;;20.40;98.90;;;;;;5052353;28;20613;-78
2022/08/23 03:05:14;;;;;;;4.25;2.53;;;20.40;98.60;;;;;;5033718;28;20025;-78
2022/08/23 03:07:40;;;;;;;4.78;2.45;;;20.30;98.70;;;;;;5034574;28;20033;-77
2022/08/23 03:10:08;;;;;;;7.85;3.53;;;20.40;98.90;;;;;;5034034;28;20032;-78
2022/08/23 03:12:34;;;;;;;5.13;2.80;;;20.30;98.90;;;;;;5034672;28;20032;-78
2022/08/23 03:14:59;;;;;;;5.05;2.70;;;20.30;98.80;;;;;;5059812;28;20025;-77
2022/08/23 03:17:25;;;;;;;5.10;2.80;;;20.30;98.90;;;;;;5073621;28;20021;-76
2022/08/23 03:19:51;;;;;;;4.78;2.50;;;20.30;98.80;;;;;;5054379;28;20411;-78
2022/08/23 03:22:18;;;;;;;5.88;2.47;;;20.30;99.20;;;;;;5036097;28;20048;-78
2022/08/23 03:24:44;;;;;;;6.65;2.80;;;20.30;99.20;;;;;;5053469;28;20501;-78
2022/08/23 03:27:10;;;;;;;8.07;3.10;;;20.30;99.20;;;;;;5052069;28;20033;-78
2022/08/23 03:29:36;;;;;;;5.50;2.80;;;20.30;99.10;;;;;;5031671;28;20107;-78
2022/08/23 03:32:03;;;;;;;6.35;2.80;;;20.20;99.10;;;;;;5035398;28;20766;-78
2022/08/23 03:34:29;;;;;;;6.80;3.20;;;20.20;98.90;;;;;;5017066;28;20484;-78
2022/08/23 03:36:55;;;;;;;8.45;2.83;;;20.20;99.10;;;;;;5051475;28;20432;-78
2022/08/23 03:39:21;;;;;;;9.00;2.95;;;20.20;99.10;;;;;;5033821;28;20033;-78
2022/08/23 03:41:47;;;;;;;6.60;3.55;;;20.20;99.10;;;;;;5053845;28;20104;-78
2022/08/23 03:44:13;;;;;;;7.15;2.90;;;20.10;99.10;;;;;;5050877;28;20033;-78
2022/08/23 03:46:39;;;;;;;8.60;2.92;;;20.10;99.30;;;;;;5034953;28;20029;-78
2022/08/23 03:49:05;;;;;;;6.20;3.00;;;20.10;99.40;;;;;;5034953;28;20047;-78
2022/08/23 03:51:33;;;;;;;5.40;2.80;;;20.20;99.30;;;;;;5049482;28;20033;-78
2022/08/23 03:53:59;;;;;;;5.15;2.90;;;20.20;99.30;;;;;;5052308;28;20060;-78
2022/08/23 03:56:30;;;;;;;4.78;3.08;;;20.10;99.30;;;;;;5053175;28;20496;-78
2022/08/23 03:58:58;;;;;;;6.03;3.08;;;20.10;99.30;;;;;;5048233;28;20055;-76
2022/08/23 04:01:23;;;;;;;5.00;3.28;;;20.10;99.20;;;;;;5050226;28;20032;-77
2022/08/23 04:03:49;;;;;;;10.45;3.17;;;20.00;99.20;;;;;;5034968;28;20486;-77
2022/08/23 04:06:17;;;;;;;5.57;2.88;;;20.10;99.40;;;;;;5030236;28;20120;-78
2022/08/23 04:08:44;;;;;;;7.28;3.33;;;20.00;99.40;;;;;;5013684;28;20025;-78
2022/08/23 04:11:11;;;;;;;6.03;2.92;;;20.00;99.50;;;;;;5031000;28;20470;-77
2022/08/23 04:13:38;;;;;;;6.65;3.20;;;20.00;99.40;;;;;;5013435;28;20364;-77
2022/08/23 04:16:04;;;;;;;5.55;2.70;;;20.00;99.40;;;;;;5049392;28;20108;-78
2022/08/23 04:18:32;;;;;;;6.70;2.90;;;20.00;99.50;;;;;;5014761;28;20032;-78
2022/08/23 04:21:01;;;;;;;6.45;3.38;;;20.00;99.40;;;;;;5047295;28;20440;-77
2022/08/23 04:23:27;;;;;;;6.03;3.15;;;20.00;99.60;;;;;;5047800;28;20071;-78
2022/08/23 04:25:54;;;;;;;5.72;2.80;;;20.00;99.60;;;;;;5045291;28;20025;-78
2022/08/23 04:28:21;;;;;;;8.23;3.40;;;20.00;99.50;;;;;;5049732;28;20531;-77
2022/08/23 04:30:47;;;;;;;6.85;2.92;;;20.00;99.50;;;;;;5048169;28;20104;-77
2022/08/23 04:33:13;;;;;;;6.90;3.58;;;20.00;99.60;;;;;;5049790;28;20097;-77
2022/08/23 04:35:40;;;;;;;5.22;3.03;;;20.00;99.60;;;;;;5035946;28;20028;-78
2022/08/23 04:38:06;;;;;;;9.40;3.28;;;20.00;99.50;;;;;;5035051;28;20036;-77
2022/08/23 04:43:16;;;;;;;6.55;3.22;;;20.00;99.30;;;;;;5036262;28;20052;-79
2022/08/23 04:45:41;;;;;;;5.85;3.25;;;20.00;99.40;;;;;;5051872;28;20033;-78
2022/08/23 04:48:08;;;;;;;5.25;3.10;;;19.90;99.30;;;;;;5055760;28;20546;-78
2022/08/23 04:50:35;;;;;;;10.40;3.28;;;19.90;99.40;;;;;;5036559;28;20071;-77
2022/08/23 04:53:01;;;;;;;7.88;3.08;;;19.90;99.30;;;;;;5033646;28;20028;-78
2022/08/23 04:55:27;;;;;;;7.45;3.78;;;19.80;99.30;;;;;;5035647;28;20025;-78
2022/08/23 04:57:53;;;;;;;10.68;3.50;;;19.80;99.50;;;;;;5045777;28;20051;-78
2022/08/23 05:00:22;;;;;;;7.80;3.67;;;19.80;99.50;;;;;;5017584;28;20085;-78
2022/08/23 05:02:48;;;;;;;5.93;3.00;;;19.80;99.60;;;;;;5019027;28;20056;-78
2022/08/23 05:05:14;;;;;;;8.07;3.30;;;19.80;99.60;;;;;;5034689;28;21513;-74
2022/08/23 05:07:40;;;;;;;9.90;3.38;;;19.80;99.90;;;;;;5049153;28;20102;-73
2022/08/23 05:10:08;;;;;;;7.10;3.28;;;19.80;99.90;;;;;;5030489;28;20528;-72
2022/08/23 05:12:34;;;;;;;5.88;3.20;;;19.80;99.80;;;;;;5021945;28;20444;-72
2022/08/23 05:14:59;;;;;;;8.27;3.63;;;19.80;99.80;;;;;;5025244;28;20082;-75
2022/08/23 05:17:25;;;;;;;8.73;3.05;;;19.80;99.70;;;;;;5047185;28;20029;-77
2022/08/23 05:19:51;;;;;;;9.98;3.53;;;19.80;99.90;;;;;;5028874;28;20029;-78
2022/08/23 05:22:17;;;;;;;7.22;3.20;;;19.90;99.90;;;;;;5027663;28;20445;-77
2022/08/23 05:24:43;;;;;;;7.10;3.25;;;19.80;99.90;;;;;;5017773;28;20040;-77
2022/08/23 05:27:09;;;;;;;6.53;3.38;;;19.80;99.90;;;;;;5035302;28;20025;-77
2022/08/23 05:29:35;;;;;;;7.47;3.55;;;19.80;99.90;;;;;;5032060;28;20086;-75
2022/08/23 05:32:01;;;;;;;6.32;3.40;;;19.80;99.90;;;;;;5051587;28;20048;-75
2022/08/23 05:34:26;;;;;;;6.20;3.13;;;19.80;99.90;;;;;;5040172;28;20032;-76
2022/08/23 05:36:53;;;;;;;8.95;3.70;;;19.80;99.90;;;;;;5038977;28;20067;-77
2022/08/23 05:39:19;;;;;;;6.95;3.58;;;19.80;99.90;;;;;;5041955;28;20056;-77
2022/08/23 05:41:45;;;;;;;5.45;3.28;;;19.90;99.90;;;;;;5050886;28;20067;-70
2022/08/23 05:44:11;;;;;;;7.93;3.80;;;19.90;99.90;;;;;;5046041;28;20063;-70
2022/08/23 05:46:37;;;;;;;7.28;3.30;;;19.90;99.90;;;;;;5014816;28;20032;-70
2022/08/23 05:49:03;;;;;;;7.35;4.40;;;20.00;99.80;;;;;;5027093;28;20035;-70
2022/08/23 05:51:32;;;;;;;7.97;3.72;;;20.00;99.90;;;;;;5047475;28;20580;-70
2022/08/23 05:54:04;;;;;;;10.00;4.03;;;20.00;99.80;;;;;;5027119;28;20025;-71
2022/08/23 05:56:33;;;;;;;10.43;3.97;;;20.00;99.80;;;;;;5048345;28;20037;-70
2022/08/23 05:59:05;;;;;;;8.40;4.00;;;20.00;99.90;;;;;;5031206;28;20120;-70
2022/08/23 06:01:32;;;;;;;9.30;4.15;;;20.00;99.90;;;;;;5025526;28;20100;-71
2022/08/23 06:03:59;;;;;;;25.45;10.55;;;19.90;99.70;;;;;;5046655;28;20033;-71
2022/08/23 06:06:25;;;;;;;14.38;6.47;;;20.00;99.90;;;;;;5029642;28;20122;-70
2022/08/23 06:08:51;;;;;;;12.40;5.00;;;20.10;99.90;;;;;;5047229;28;20562;-71
2022/08/23 06:11:27;;;;;;;14.60;5.20;;;20.10;99.90;;;;;;5032969;28;20063;-71
2022/08/23 06:13:55;;;;;;;5.43;3.10;;;20.10;99.40;;;;;;5052643;28;20041;-71
2022/08/23 06:16:25;;;;;;;8.52;3.47;;;20.10;99.60;;;;;;5046099;28;20115;-71
2022/08/23 06:18:53;;;;;;;7.20;3.63;;;20.20;99.60;;;;;;5031745;28;20103;-72
2022/08/23 06:21:19;;;;;;;9.75;3.17;;;20.20;99.40;;;;;;5020053;28;20105;-72
2022/08/23 06:23:46;;;;;;;9.68;3.75;;;20.30;99.40;;;;;;5030617;28;20029;-71
2022/08/23 06:26:17;;;;;;;10.50;3.75;;;20.40;99.30;;;;;;5013556;28;20028;-70
2022/08/23 06:28:45;;;;;;;5.80;3.03;;;20.50;98.90;;;;;;5047327;28;20044;-72
2022/08/23 06:31:11;;;;;;;6.57;3.63;;;20.50;99.00;;;;;;5028142;28;20080;-72
2022/08/23 06:33:40;;;;;;;11.40;4.32;;;20.50;98.90;;;;;;5049874;28;20029;-69
2022/08/23 06:36:12;;;;;;;7.00;3.65;;;20.50;98.90;;;;;;5052555;28;20111;-78
2022/08/23 06:38:40;;;;;;;10.38;3.47;;;20.60;98.80;;;;;;5020791;28;20035;-78
2022/08/23 06:41:09;;;;;;;9.48;4.03;;;20.60;98.80;;;;;;5019503;28;20369;-78
2022/08/23 06:43:38;;;;;;;7.85;3.97;;;20.60;99.00;;;;;;5054327;28;20033;-77
2022/08/23 06:46:17;;;;;;;7.72;3.47;;;20.60;98.60;;;;;;5018094;28;20043;-77
2022/08/23 06:48:44;;;;;;;8.00;3.75;;;20.60;98.50;;;;;;5030527;28;20021;-77
2022/08/23 06:51:15;;;;;;;6.97;4.00;;;20.70;98.60;;;;;;5035637;28;20421;-77
2022/08/23 06:53:41;;;;;;;11.13;4.45;;;20.60;98.50;;;;;;5054712;28;20032;-78
2022/08/23 06:56:07;;;;;;;5.90;3.38;;;20.60;98.40;;;;;;5038865;28;20025;-77
2022/08/23 06:58:33;;;;;;;11.80;3.80;;;20.60;98.70;;;;;;5056524;28;20059;-77
2022/08/23 07:01:26;;;;;;;8.57;3.75;;;20.60;98.40;;;;;;5052989;28;20485;-77
2022/08/23 07:03:55;;;;;;;8.10;3.63;;;20.70;98.30;;;;;;5053356;28;20040;-78
2022/08/23 07:06:22;;;;;;;7.70;3.45;;;20.70;98.40;;;;;;5020924;28;20036;-78
2022/08/23 07:08:49;;;;;;;8.73;3.10;;;20.70;98.50;;;;;;5056848;28;20040;-78
2022/08/23 07:11:14;;;;;;;5.53;2.90;;;20.70;98.30;;;;;;5058457;28;20025;-78
2022/08/23 07:13:40;;;;;;;8.15;3.42;;;20.70;98.30;;;;;;5037012;28;20051;-78
2022/08/23 07:16:06;;;;;;;9.75;3.38;;;20.80;98.50;;;;;;5037391;28;20031;-77
2022/08/23 07:18:32;;;;;;;6.75;3.17;;;20.80;98.20;;;;;;5035401;28;20033;-78
2022/08/23 07:21:01;;;;;;;8.57;3.42;;;20.80;98.40;;;;;;5035781;28;20028;-77
2022/08/23 07:23:31;;;;;;;10.38;3.85;;;20.90;98.20;;;;;;5019683;28;20041;-79
2022/08/23 07:26:02;;;;;;;6.85;3.15;;;20.90;98.20;;;;;;5039842;28;20574;-79
2022/08/23 07:28:28;;;;;;;7.90;3.10;;;20.90;98.10;;;;;;5037280;28;20024;-77
2022/08/23 07:31:04;;;;;;;7.18;3.25;;;21.00;98.30;;;;;;5055221;28;20123;-78
2022/08/23 07:33:30;;;;;;;7.28;3.13;;;21.00;98.00;;;;;;5055800;28;20029;-78
2022/08/23 07:35:56;;;;;;;6.43;3.05;;;21.00;97.90;;;;;;5050328;28;20054;-78
2022/08/23 07:38:22;;;;;;;7.30;3.13;;;21.10;97.70;;;;;;5052779;28;20037;-78
2022/08/23 07:40:47;;;;;;;7.22;2.95;;;21.10;97.60;;;;;;5036827;28;20136;-78
2022/08/23 07:43:13;;;;;;;7.07;3.33;;;21.20;97.80;;;;;;5049317;28;20326;-77
2022/08/23 07:45:39;;;;;;;10.80;3.35;;;21.20;97.50;;;;;;5036009;28;20043;-78
2022/08/23 07:48:05;;;;;;;7.60;3.30;;;21.20;97.40;;;;;;5038291;28;20063;-78
2022/08/23 07:50:31;;;;;;;10.48;3.22;;;21.30;97.50;;;;;;5036098;28;20035;-78
2022/08/23 07:52:57;;;;;;;6.13;3.15;;;21.30;97.50;;;;;;5050266;28;20107;-77
2022/08/23 07:55:23;;;;;;;5.22;2.65;;;21.30;97.40;;;;;;5035147;28;20112;-78
2022/08/23 07:57:49;;;;;;;7.68;2.80;;;21.40;97.40;;;;;;5036544;28;20040;-79
2022/08/23 08:00:15;;;;;;;8.32;3.10;;;21.40;97.40;;;;;;5035896;28;20029;-77
2022/08/23 08:02:41;;;;;;;7.22;3.38;;;21.50;97.00;;;;;;5056025;28;20033;-78
2022/08/23 08:05:07;;;;;;;7.00;2.97;;;21.50;97.00;;;;;;5040315;28;20024;-78
2022/08/23 08:07:33;;;;;;;5.45;2.67;;;21.60;96.90;;;;;;5039923;28;20029;-79
2022/08/23 08:09:59;;;;;;;5.25;2.90;;;21.60;96.80;;;;;;5029481;28;20083;-78
2022/08/23 08:12:27;;;;;;;3.75;2.55;;;21.60;96.80;;;;;;5051648;28;20021;-77
2022/08/23 08:14:53;;;;;;;7.18;2.40;;;21.70;96.50;;;;;;5033792;28;20044;-77
2022/08/23 08:17:19;;;;;;;6.10;2.83;;;21.70;96.00;;;;;;5062750;28;20032;-77
2022/08/23 08:19:45;;;;;;;6.32;2.22;;;21.80;96.20;;;;;;5050175;28;20036;-77
2022/08/23 08:22:11;;;;;;;8.98;2.47;;;21.80;96.30;;;;;;5057244;28;20066;-77
2022/08/23 08:24:38;;;;;;;7.88;2.20;;;21.90;96.40;;;;;;5040310;28;20092;-77
2022/08/23 08:27:04;;;;;;;6.43;2.75;;;21.90;96.30;;;;;;5041713;28;20124;-78
2022/08/23 08:29:30;;;;;;;5.13;2.28;;;21.90;95.90;;;;;;5041803;28;20281;-79
2022/08/23 08:31:56;;;;;;;6.03;2.45;;;22.00;95.60;;;;;;5039369;28;20036;-78
2022/08/23 08:34:22;;;;;;;4.85;2.42;;;22.10;95.50;;;;;;5037707;28;20016;-78
2022/08/23 08:36:53;;;;;;;2.83;1.95;;;22.10;94.40;;;;;;5056722;28;20033;-78
2022/08/23 08:39:23;;;;;;;3.63;1.73;;;22.20;94.10;;;;;;5038549;28;20029;-78
2022/08/23 08:42:22;;;;;;;3.38;1.95;;;22.20;94.20;;;;;;5053910;28;20112;-78
2022/08/23 08:45:12;;;;;;;2.30;1.80;;;22.20;93.90;;;;;;5052920;28;20025;-78
2022/08/23 08:47:59;;;;;;;5.30;2.00;;;22.30;93.80;;;;;;5037991;28;20025;-78
2022/08/23 08:50:39;;;;;;;3.17;2.00;;;22.30;93.70;;;;;;5038701;28;20617;-77
2022/08/23 08:53:10;;;;;;;4.50;2.35;;;22.30;93.90;;;;;;5056756;28;20064;-77
2022/08/23 08:55:39;;;;;;;;;;;22.40;94.20;;;;;;5038433;28;20093;-77
2022/08/23 08:58:10;;;;;;;4.70;2.20;;;22.50;94.20;;;;;;5053029;28;19904;-78
2022/08/23 09:00:37;;;;;;;4.22;2.20;;;22.60;94.10;;;;;;5054720;28;20605;-78
2022/08/23 09:03:11;;;;;;;3.70;2.47;;;22.60;94.20;;;;;;5020333;28;20187;-78
2022/08/23 09:05:45;;;;;;;8.77;2.47;;;22.70;93.80;;;;;;5035038;28;20046;-78
2022/08/23 09:08:39;;;;;;;3.95;1.92;;;22.70;94.00;;;;;;5038104;28;20050;-78
2022/08/23 09:11:30;;;;;;;7.32;2.03;;;22.70;93.90;;;;;;5054348;28;20424;-77
2022/08/23 09:14:12;;;;;;;5.38;2.30;;;22.80;93.80;;;;;;5053514;28;20033;-77
2022/08/23 09:16:46;;;;;;;4.63;2.35;;;22.80;94.00;;;;;;5022143;28;20028;-78
2022/08/23 09:19:12;;;;;;;4.88;2.03;;;22.80;93.80;;;;;;5069297;28;20021;-78
2022/08/23 09:21:50;;;;;;;7.40;2.53;;;22.80;93.40;;;;;;5039926;28;20028;-78
2022/08/23 09:24:16;;;;;;;4.22;2.10;;;22.90;93.60;;;;;;5037617;28;20031;-78
2022/08/23 09:26:42;;;;;;;2.42;1.60;;;22.90;93.60;;;;;;5023959;28;20033;-78
2022/08/23 09:29:17;;;;;;;3.55;1.95;;;23.00;93.90;;;;;;5041308;28;20029;-78
2022/08/23 09:31:51;;;;;;;4.53;2.30;;;23.10;93.40;;;;;;5058310;28;20025;-78
2022/08/23 09:34:29;;;;;;;3.28;1.98;;;23.10;93.80;;;;;;5037353;28;20029;-79
2022/08/23 09:37:07;;;;;;;5.95;2.40;;;23.10;93.30;;;;;;5055766;28;20036;-78
2022/08/23 09:39:36;;;;;;;5.28;1.90;;;23.20;92.90;;;;;;5040027;28;20029;-79
2022/08/23 09:42:03;;;;;;;4.28;2.38;;;23.30;93.00;;;;;;5036743;28;20090;-78
2022/08/23 09:44:39;;;;;;;5.60;2.08;;;23.30;92.80;;;;;;5058598;28;20021;-77
2022/08/23 09:47:13;;;;;;;4.53;2.00;;;23.40;92.80;;;;;;5058581;28;20032;-78
2022/08/23 09:49:40;;;;;;;6.68;2.33;;;23.40;92.80;;;;;;5041556;28;20033;-78
2022/08/23 09:52:25;;;;;;;5.53;2.03;;;23.40;92.60;;;;;;5062172;28;20024;-78
2022/08/23 09:55:25;;;;;;;2.50;1.70;;;23.50;92.30;;;;;;5058968;28;20017;-77
2022/08/23 09:57:51;;;;;;;4.10;1.80;;;23.50;92.40;;;;;;5058150;28;20025;-78
2022/08/23 10:00:22;;;;;;;5.50;1.95;;;23.50;92.40;;;;;;5037688;28;20051;-78
2022/08/23 10:02:49;;;;;;;5.63;2.22;;;23.60;92.60;;;;;;5031973;28;20035;-78
2022/08/23 10:05:14;;;;;;;5.13;2.10;;;23.70;92.60;;;;;;5032338;28;20053;-78
2022/08/23 10:07:52;;;;;;;6.90;2.38;;;23.70;91.70;;;;;;5053263;28;20083;-78
2022/08/23 10:10:27;;;;;;;6.50;2.00;;;23.70;92.20;;;;;;5053363;28;20025;-78
2022/08/23 10:12:54;;;;;;;3.70;1.83;;;23.70;91.70;;;;;;5056519;28;20435;-78
2022/08/23 10:15:25;;;;;;;5.75;1.83;;;23.70;92.00;;;;;;5037334;28;20084;-78
2022/08/23 10:18:02;;;;;;;4.32;1.70;;;23.80;91.30;;;;;;5024407;28;20037;-77
2022/08/23 10:20:37;;;;;;;6.43;2.00;;;23.80;91.30;;;;;;5034073;28;20033;-78
2022/08/23 10:23:22;;;;;;;7.97;2.00;;;23.90;90.90;;;;;;5036203;28;20029;-78
2022/08/23 10:25:58;;;;;;;5.40;2.00;;;23.90;91.20;;;;;;5019888;28;20040;-79
2022/08/23 10:31:38;;;;;;;6.50;2.35;;;24.00;91.10;;;;;;5053967;28;20458;-79
2022/08/23 10:34:32;;;;;;;4.57;2.00;;;24.10;91.00;;;;;;5022823;28;20036;-79
2022/08/23 10:37:26;;;;;;;6.97;2.30;;;24.10;91.10;;;;;;5036479;28;20500;-78
2022/08/23 10:40:17;;;;;;;4.07;1.90;;;24.10;90.50;;;;;;5053606;28;20055;-78
2022/08/23 10:42:52;;;;;;;5.05;1.60;;;24.10;90.80;;;;;;5037745;28;20033;-79
2022/08/23 10:45:29;;;;;;;7.32;2.10;;;24.20;90.10;;;;;;5016328;28;20274;-76
2022/08/23 10:48:15;;;;;;;4.72;1.98;;;24.20;90.20;;;;;;5033397;28;20523;-77
2022/08/23 10:50:56;;;;;;;6.82;1.60;;;24.20;90.60;;;;;;5023032;28;20037;-78
2022/08/23 10:53:28;;;;;;;4.68;2.13;;;24.30;89.90;;;;;;5037444;28;20445;-78
2022/08/23 10:56:04;;;;;;;4.78;1.83;;;24.30;88.80;;;;;;5019575;28;20033;-78
2022/08/23 10:58:45;;;;;;;8.82;2.00;;;24.40;89.70;;;;;;5037805;28;20033;-78
2022/08/23 11:01:17;;;;;;;2.50;1.65;;;24.40;88.70;;;;;;5037971;28;20048;-78
2022/08/23 11:03:50;;;;;;;7.15;1.70;;;24.40;88.60;;;;;;5055748;28;20024;-77
2022/08/23 11:06:36;;;;;;;2.95;1.67;;;24.50;87.20;;;;;;5037590;28;20109;-77
2022/08/23 11:09:20;;;;;;;3.58;1.55;;;24.50;87.10;;;;;;5051427;28;20151;-77
2022/08/23 11:12:10;;;;;;;6.13;1.67;;;24.60;87.20;;;;;;5022857;28;20043;-78
2022/08/23 11:14:58;;;;;;;3.67;1.42;;;24.60;87.80;;;;;;5020822;28;20021;-78
2022/08/23 11:17:57;;;;;;;5.95;2.22;;;24.60;87.30;;;;;;5021607;28;20041;-78
2022/08/23 11:20:48;;;;;;;4.10;1.50;;;24.60;87.60;;;;;;5037086;28;20033;-78
2022/08/23 11:23:17;;;;;;;7.13;1.60;;;24.80;85.80;;;;;;5038278;28;20029;-78
2022/08/23 11:25:44;;;;;;;3.92;1.60;;;24.80;86.00;;;;;;5058315;28;20037;-77
2022/08/23 11:28:22;;;;;;;3.33;1.60;;;24.90;85.00;;;;;;5028872;28;20029;-77
2022/08/23 11:30:50;;;;;;;4.50;1.70;;;25.10;85.50;;;;;;5039637;28;20033;-78
2022/08/23 11:33:33;;;;;;;4.82;1.88;;;25.10;85.90;;;;;;5037135;28;20021;-77
2022/08/23 11:36:08;;;;;;;2.95;1.42;;;25.20;85.10;;;;;;5021582;28;20109;-77
2022/08/23 11:38:42;;;;;;;2.97;1.25;;;25.30;83.70;;;;;;5022410;28;20036;-78
2022/08/23 11:41:29;;;;;;;4.35;1.67;;;25.40;82.40;;;;;;5020389;28;20107;-78
2022/08/23 11:43:54;;;;;;;2.63;1.30;;;25.50;82.00;;;;;;5031740;28;20181;-78
2022/08/23 11:46:26;;;;;;;3.13;1.38;;;25.60;80.70;;;;;;5034433;28;20486;-77
2022/08/23 11:49:19;;;;;;;4.28;1.23;;;25.80;80.90;;;;;;5052386;28;20044;-77
2022/08/23 11:51:57;;;;;;;4.50;1.30;;;26.10;81.70;;;;;;5035554;28;20500;-77
2022/08/23 11:54:54;;;;;;;5.45;1.23;;;26.20;77.60;;;;;;5052266;28;20036;-78
2022/08/23 11:57:44;;;;;;;4.25;1.55;;;26.20;78.20;;;;;;5041231;28;20063;-78
2022/08/23 12:00:47;;;;;;;2.13;1.30;;;26.40;76.60;;;;;;5053621;28;20041;-77
2022/08/23 12:03:32;;;;;;;3.08;1.58;;;26.80;74.30;;;;;;5036393;28;20118;-77
2022/08/23 12:06:08;;;;;;;2.00;1.40;;;27.40;72.80;;;;;;5035124;28;20052;-78
2022/08/23 12:09:00;;;;;;;1.98;1.30;;;27.90;73.60;;;;;;5053298;28;20021;-78
2022/08/23 12:11:52;;;;;;;4.38;2.50;;;28.60;72.10;;;;;;5053335;28;20039;-78
2022/08/23 12:14:35;;;;;;;2.20;1.25;;;29.20;70.00;;;;;;5036963;28;20029;-78
2022/08/23 12:17:24;;;;;;;3.67;1.50;;;29.70;66.20;;;;;;5036012;28;20130;-78
2022/08/23 12:20:24;;;;;;;2.40;1.25;;;30.00;64.40;;;;;;5062457;28;20032;-76
2022/08/23 12:23:06;;;;;;;2.65;1.25;;;30.70;62.40;;;;;;5034664;28;20132;-77
2022/08/23 12:25:33;;;;;;;2.53;1.63;;;31.20;59.30;;;;;;5034495;28;20094;-77
2022/08/23 12:28:11;;;;;;;2.40;1.10;;;31.30;58.70;;;;;;5035415;28;20029;-78
2022/08/23 12:31:03;;;;;;;2.25;1.30;;;31.50;58.30;;;;;;5055137;28;20286;-77
2022/08/23 12:33:57;;;;;;;3.17;1.42;;;31.80;57.80;;;;;;5052934;28;20044;-78
2022/08/23 12:36:29;;;;;;;2.72;1.02;;;32.20;56.40;;;;;;5049808;28;20032;-78
2022/08/23 12:39:07;;;;;;;2.38;1.20;;;32.40;55.80;;;;;;5035842;28;20021;-77
2022/08/23 12:42:10;;;;;;;4.03;1.35;;;32.50;53.90;;;;;;5052756;28;20025;-78
2022/08/23 12:44:36;;;;;;;5.47;1.45;;;32.90;52.50;;;;;;5033779;28;20098;-78
2022/08/23 12:47:19;;;;;;;5.40;1.33;;;33.30;52.20;;;;;;5019459;28;20032;-78
2022/08/23 12:49:57;;;;;;;4.20;1.50;;;33.70;51.50;;;;;;5054038;28;20033;-78
2022/08/23 12:52:28;;;;;;;5.10;1.50;;;34.30;50.00;;;;;;5031631;28;20082;-78
2022/08/23 12:54:56;;;;;;;1.90;1.30;;;34.50;50.20;;;;;;5052164;28;20615;-77
2022/08/23 12:57:43;;;;;;;3.35;1.50;;;35.00;49.20;;;;;;5036981;28;20032;-77
2022/08/23 13:00:32;;;;;;;3.42;1.42;;;35.40;49.10;;;;;;5023425;28;20063;-77
2022/08/23 13:03:02;;;;;;;4.78;2.08;;;35.80;48.10;;;;;;5038946;28;20097;-77
2022/08/23 13:05:31;;;;;;;2.90;1.60;;;35.60;47.40;;;;;;5057790;28;20508;-76
2022/08/23 13:07:59;;;;;;;3.83;1.70;;;35.70;45.90;;;;;;5035138;28;20088;-78
2022/08/23 13:10:25;;;;;;;2.83;1.63;;;36.10;44.30;;;;;;5036070;28;20025;-78
2022/08/23 13:12:51;;;;;;;6.53;1.35;;;36.30;44.50;;;;;;5034872;28;20038;-78
2022/08/23 13:15:56;;;;;;;1.63;1.30;;;36.40;44.70;;;;;;5035476;28;20029;-76
2022/08/23 13:18:23;;;;;;;5.47;2.00;;;36.70;43.90;;;;;;5029085;28;20036;-77